Terminal Aerodrome Forecast
Issued by NWS Boise, ID

Home | Current Version | Previous Version | Text Only | Print | Product List | Glossary On
Versions: 1 2 3 4 5 6 7 8 9 10 11 12 13 14
000
FTUS45 KBOI 250520
TAFBNO
TAF
KBNO 250520Z 2506/2606 VRB03KT P6SM BKN250
     FM251500 14015KT P6SM SCT080
     FM251900 17025G35KT P6SM BKN080
     FM260100 18015G25KT P6SM -SHRA SCT030 OVC050=

USA.gov is the U.S. government's official web portal to all federal, state and local government web resources and services.